Terminal Aerodrome Forecast
Issued by NWS Cleveland, OH

Home | Current Version | Previous Version | Graphics & Text | Print | Product List | Glossary On
Versions: 1 2 3 4 5 6 7 8 9 10 11 12 13 14 15 16 17 18 19
000
FTUS41 KCLE 251100
TAFCAK
TAF
KCAK 251120Z 2512/2612 07011KT 5SM -RA BR SCT028 OVC045
      TEMPO 2512/2515 6SM -RA BR SCT028 OVC045
     FM251500 09011KT P6SM OVC045
     FM251900 08009KT P6SM -RA OVC045
      TEMPO 2520/2524 5SM -RA BR BKN025
     FM260200 04008KT P6SM OVC050
     FM260800 02008KT P6SM BKN120 OVC250=

USA.gov is the U.S. government's official web portal to all federal, state and local government web resources and services.